sensor_id;sensor_type;location;lat;lon;timestamp;pressure;altitude;pressure_sealevel;temperature;humidity
68859;BME280;55864;49.238;8.092;2023-02-21T00:00:29;99943.88;;;8.06;75.05
68859;BME280;55864;49.238;8.092;2023-02-21T00:02:29;99939.00;;;8.02;74.66
68859;BME280;55864;49.238;8.092;2023-02-21T00:04:30;99936.28;;;8.03;74.91
68859;BME280;55864;49.238;8.092;2023-02-21T00:06:31;99940.06;;;7.99;74.75
68859;BME280;55864;49.238;8.092;2023-02-21T00:08:31;99940.31;;;7.96;74.71
68859;BME280;55864;49.238;8.092;2023-02-21T00:10:32;99935.28;;;7.93;75.54
68859;BME280;55864;49.238;8.092;2023-02-21T00:12:34;99945.88;;;7.92;75.29
68859;BME280;55864;49.238;8.092;2023-02-21T00:14:35;99937.19;;;7.91;75.33
68859;BME280;55864;49.238;8.092;2023-02-21T00:16:36;99929.69;;;7.87;75.57
68859;BME280;55864;49.238;8.092;2023-02-21T00:18:37;99928.59;;;7.89;75.17
68859;BME280;55864;49.238;8.092;2023-02-21T00:20:38;99929.44;;;7.90;76.03
68859;BME280;55864;49.238;8.092;2023-02-21T00:22:38;99928.84;;;7.86;75.38
68859;BME280;55864;49.238;8.092;2023-02-21T00:24:39;99925.63;;;7.83;75.98
68859;BME280;55864;49.238;8.092;2023-02-21T00:26:39;99928.00;;;7.86;75.59
68859;BME280;55864;49.238;8.092;2023-02-21T00:28:41;99935.13;;;7.84;75.60
68859;BME280;55864;49.238;8.092;2023-02-21T00:30:42;99927.41;;;7.82;76.22
68859;BME280;55864;49.238;8.092;2023-02-21T00:32:42;99937.03;;;7.82;76.20
68859;BME280;55864;49.238;8.092;2023-02-21T00:34:43;99926.56;;;7.82;75.97
68859;BME280;55864;49.238;8.092;2023-02-21T00:36:43;99930.25;;;7.79;75.92
68859;BME280;55864;49.238;8.092;2023-02-21T00:38:44;99919.28;;;7.74;75.89
68859;BME280;55864;49.238;8.092;2023-02-21T00:40:44;99923.81;;;7.72;76.30
68859;BME280;55864;49.238;8.092;2023-02-21T00:42:45;99930.22;;;7.68;76.37
68859;BME280;55864;49.238;8.092;2023-02-21T00:44:47;99920.69;;;7.67;76.31
68859;BME280;55864;49.238;8.092;2023-02-21T00:46:48;99916.50;;;7.64;76.99
68859;BME280;55864;49.238;8.092;2023-02-21T00:48:48;99915.56;;;7.66;76.57
68859;BME280;55864;49.238;8.092;2023-02-21T00:50:49;99914.13;;;7.61;77.12
68859;BME280;55864;49.238;8.092;2023-02-21T00:52:49;99908.19;;;7.59;76.80
68859;BME280;55864;49.238;8.092;2023-02-21T00:54:50;99904.97;;;7.56;76.90
68859;BME280;55864;49.238;8.092;2023-02-21T00:56:50;99902.59;;;7.53;77.12
68859;BME280;55864;49.238;8.092;2023-02-21T00:58:51;99900.06;;;7.51;77.35
68859;BME280;55864;49.238;8.092;2023-02-21T01:00:53;99899.13;;;7.52;77.16
68859;BME280;55864;49.238;8.092;2023-02-21T01:02:53;99890.44;;;7.52;76.83
68859;BME280;55864;49.238;8.092;2023-02-21T01:04:54;99906.00;;;7.53;77.44
68859;BME280;55864;49.238;8.092;2023-02-21T01:06:55;99894.50;;;7.56;77.63
68859;BME280;55864;49.238;8.092;2023-02-21T01:08:55;99893.66;;;7.55;77.05
68859;BME280;55864;49.238;8.092;2023-02-21T01:10:56;99890.72;;;7.60;76.85
68859;BME280;55864;49.238;8.092;2023-02-21T01:12:56;99896.66;;;7.62;77.16
68859;BME280;55864;49.238;8.092;2023-02-21T01:14:57;99895.94;;;7.60;75.89
68859;BME280;55864;49.238;8.092;2023-02-21T01:17:01;99892.00;;;7.54;76.63
68859;BME280;55864;49.238;8.092;2023-02-21T01:19:01;99882.00;;;7.48;77.34
68859;BME280;55864;49.238;8.092;2023-02-21T01:21:02;99895.91;;;7.49;77.32
68859;BME280;55864;49.238;8.092;2023-02-21T01:23:03;99892.69;;;7.45;77.86
68859;BME280;55864;49.238;8.092;2023-02-21T01:25:04;99884.72;;;7.47;77.62
68859;BME280;55864;49.238;8.092;2023-02-21T01:27:05;99887.66;;;7.42;77.91
68859;BME280;55864;49.238;8.092;2023-02-21T01:29:06;99879.22;;;7.39;78.50
68859;BME280;55864;49.238;8.092;2023-02-21T01:31:06;99882.69;;;7.39;78.27
68859;BME280;55864;49.238;8.092;2023-02-21T01:33:09;99877.66;;;7.36;78.42
68859;BME280;55864;49.238;8.092;2023-02-21T01:35:10;99890.00;;;7.34;79.06
68859;BME280;55864;49.238;8.092;2023-02-21T01:37:10;99883.00;;;7.35;78.60
68859;BME280;55864;49.238;8.092;2023-02-21T01:39:11;99883.13;;;7.33;79.08
68859;BME280;55864;49.238;8.092;2023-02-21T01:41:12;99887.28;;;7.36;78.80
68859;BME280;55864;49.238;8.092;2023-02-21T01:43:14;99889.91;;;7.36;78.95
68859;BME280;55864;49.238;8.092;2023-02-21T01:45:38;99883.13;;;7.33;78.92
68859;BME280;55864;49.238;8.092;2023-02-21T01:47:40;99886.66;;;7.32;78.78
68859;BME280;55864;49.238;8.092;2023-02-21T01:49:42;99872.06;;;7.30;79.20
68859;BME280;55864;49.238;8.092;2023-02-21T01:51:44;99881.91;;;7.26;79.24
68859;BME280;55864;49.238;8.092;2023-02-21T01:53:45;99874.88;;;7.27;79.50
68859;BME280;55864;49.238;8.092;2023-02-21T01:55:46;99876.69;;;7.26;79.62
68859;BME280;55864;49.238;8.092;2023-02-21T01:57:48;99876.69;;;7.26;79.25
68859;BME280;55864;49.238;8.092;2023-02-21T01:59:50;99878.94;;;7.31;79.05
68859;BME280;55864;49.238;8.092;2023-02-21T02:01:56;99872.91;;;7.30;79.33
68859;BME280;55864;49.238;8.092;2023-02-21T02:03:58;99874.56;;;7.31;79.11
68859;BME280;55864;49.238;8.092;2023-02-21T02:06:04;99881.44;;;7.32;79.58
68859;BME280;55864;49.238;8.092;2023-02-21T02:08:06;99887.50;;;7.33;79.63
68859;BME280;55864;49.238;8.092;2023-02-21T02:10:08;99883.13;;;7.33;79.46
68859;BME280;55864;49.238;8.092;2023-02-21T02:12:30;99883.00;;;7.35;79.35
68859;BME280;55864;49.238;8.092;2023-02-21T02:14:48;99887.06;;;7.39;79.74
68859;BME280;55864;49.238;8.092;2023-02-21T02:16:56;99880.78;;;7.41;79.39
68859;BME280;55864;49.238;8.092;2023-02-21T02:19:24;99886.00;;;7.41;79.18
68859;BME280;55864;49.238;8.092;2023-02-21T02:24:34;99881.38;;;7.45;79.46
68859;BME280;55864;49.238;8.092;2023-02-21T02:26:58;99882.13;;;7.47;78.81
68859;BME280;55864;49.238;8.092;2023-02-21T02:29:13;99881.28;;;7.46;78.83
68859;BME280;55864;49.238;8.092;2023-02-21T02:31:41;99885.56;;;7.47;78.50
68859;BME280;55864;49.238;8.092;2023-02-21T02:34:05;99875.94;;;7.48;78.96
68859;BME280;55864;49.238;8.092;2023-02-21T02:36:10;99888.88;;;7.49;78.57
68859;BME280;55864;49.238;8.092;2023-02-21T02:38:16;99881.75;;;7.51;78.97
68859;BME280;55864;49.238;8.092;2023-02-21T02:40:26;99882.59;;;7.52;78.40
68859;BME280;55864;49.238;8.092;2023-02-21T02:42:39;99888.66;;;7.52;78.98
68859;BME280;55864;49.238;8.092;2023-02-21T02:44:45;99881.75;;;7.51;78.99
68859;BME280;55864;49.238;8.092;2023-02-21T02:46:50;99875.72;;;7.51;78.87
68859;BME280;55864;49.238;8.092;2023-02-21T02:48:57;99875.59;;;7.52;78.67
68859;BME280;55864;49.238;8.092;2023-02-21T02:51:02;99875.59;;;7.52;78.47
68859;BME280;55864;49.238;8.092;2023-02-21T02:53:04;99877.38;;;7.52;78.89
68859;BME280;55864;49.238;8.092;2023-02-21T02:55:23;99879.06;;;7.53;78.88
68859;BME280;55864;49.238;8.092;2023-02-21T02:57:24;99880.84;;;7.52;78.99
68859;BME280;55864;49.238;8.092;2023-02-21T02:59:26;99874.75;;;7.52;79.30
68859;BME280;55864;49.238;8.092;2023-02-21T03:01:48;99883.56;;;7.51;78.76
68859;BME280;55864;49.238;8.092;2023-02-21T03:04:04;99876.53;;;7.51;78.87
68859;BME280;55864;49.238;8.092;2023-02-21T03:06:15;99880.09;;;7.50;79.14
68859;BME280;55864;49.238;8.092;2023-02-21T03:08:27;99876.44;;;7.53;78.84
68859;BME280;55864;49.238;8.092;2023-02-21T03:10:37;99880.84;;;7.52;78.37
68859;BME280;55864;49.238;8.092;2023-02-21T03:12:49;99880.84;;;7.52;78.98
68859;BME280;55864;49.238;8.092;2023-02-21T03:14:55;99879.06;;;7.53;78.58
68859;BME280;55864;49.238;8.092;2023-02-21T03:17:01;99879.06;;;7.53;79.15
68859;BME280;55864;49.238;8.092;2023-02-21T03:19:06;99883.31;;;7.54;78.45
68859;BME280;55864;49.238;8.092;2023-02-21T03:21:10;99887.38;;;7.58;78.78
68859;BME280;55864;49.238;8.092;2023-02-21T03:23:14;99878.94;;;7.54;78.77
68859;BME280;55864;49.238;8.092;2023-02-21T03:25:20;99879.06;;;7.53;78.84
68859;BME280;55864;49.238;8.092;2023-02-21T03:27:22;99878.34;;;7.51;78.79
68859;BME280;55864;49.238;8.092;2023-02-21T03:29:29;99874.75;;;7.52;78.48
68859;BME280;55864;49.238;8.092;2023-02-21T03:31:34;99888.88;;;7.49;78.63
68859;BME280;55864;49.238;8.092;2023-02-21T03:33:36;99880.78;;;7.41;78.08
68859;BME280;55864;49.238;8.092;2023-02-21T03:35:40;99888.09;;;7.36;78.68
68859;BME280;55864;49.238;8.092;2023-02-21T03:37:43;99884.56;;;7.37;78.83
68859;BME280;55864;49.238;8.092;2023-02-21T03:39:44;99888.22;;;7.35;78.76
68859;BME280;55864;49.238;8.092;2023-02-21T03:41:46;99893.56;;;7.33;79.45
68859;BME280;55864;49.238;8.092;2023-02-21T03:43:48;99889.06;;;7.35;78.96
68859;BME280;55864;49.238;8.092;2023-02-21T03:45:48;99884.56;;;7.37;78.46
68859;BME280;55864;49.238;8.092;2023-02-21T03:47:52;99886.34;;;7.37;78.87
68859;BME280;55864;49.238;8.092;2023-02-21T03:49:53;99886.81;;;7.42;78.69
68859;BME280;55864;49.238;8.092;2023-02-21T03:51:54;99878.97;;;7.42;78.96
68859;BME280;55864;49.238;8.092;2023-02-21T03:53:54;99883.41;;;7.41;78.61
68859;BME280;55864;49.238;8.092;2023-02-21T03:56:00;99880.53;;;7.44;78.56
68859;BME280;55864;49.238;8.092;2023-02-21T03:58:11;99886.50;;;7.46;78.11
68859;BME280;55864;49.238;8.092;2023-02-21T04:00:13;99889.44;;;7.42;77.86
68859;BME280;55864;49.238;8.092;2023-02-21T04:02:16;99892.91;;;7.42;78.45
68859;BME280;55864;49.238;8.092;2023-02-21T04:04:17;99894.91;;;7.39;78.36
68859;BME280;55864;49.238;8.092;2023-02-21T04:06:20;99896.06;;;7.35;78.35
68859;BME280;55864;49.238;8.092;2023-02-21T04:08:21;99893.56;;;7.33;77.44
68859;BME280;55864;49.238;8.092;2023-02-21T04:10:22;99896.63;;;7.27;78.05
68859;BME280;55864;49.238;8.092;2023-02-21T04:12:23;99899.66;;;7.21;77.34
68859;BME280;55864;49.238;8.092;2023-02-21T04:14:25;99899.06;;;7.18;77.68
68859;BME280;55864;49.238;8.092;2023-02-21T04:16:27;99903.16;;;7.09;77.50
68859;BME280;55864;49.238;8.092;2023-02-21T04:18:29;99896.19;;;6.97;77.68
68859;BME280;55864;49.238;8.092;2023-02-21T04:20:33;99888.06;;;6.89;78.02
68859;BME280;55864;49.238;8.092;2023-02-21T04:22:36;99895.50;;;6.83;78.14
68859;BME280;55864;49.238;8.092;2023-02-21T04:24:36;99896.06;;;6.75;78.56
68859;BME280;55864;49.238;8.092;2023-02-21T04:26:37;99889.56;;;6.68;78.52
68859;BME280;55864;49.238;8.092;2023-02-21T04:28:38;99887.41;;;6.62;78.70
68859;BME280;55864;49.238;8.092;2023-02-21T04:30:41;99886.88;;;6.57;78.63
68859;BME280;55864;49.238;8.092;2023-02-21T04:32:41;99894.31;;;6.50;79.01
68859;BME280;55864;49.238;8.092;2023-02-21T04:34:46;99894.72;;;6.44;79.08
68859;BME280;55864;49.238;8.092;2023-02-21T04:36:47;99900.38;;;6.51;79.35
68859;BME280;55864;49.238;8.092;2023-02-21T04:38:51;99893.25;;;6.53;79.52
68859;BME280;55864;49.238;8.092;2023-02-21T04:40:52;99891.47;;;6.53;79.29
68859;BME280;55864;49.238;8.092;2023-02-21T04:42:52;99887.31;;;6.51;79.34
68859;BME280;55864;49.238;8.092;2023-02-21T04:44:53;99894.63;;;6.46;79.28
68859;BME280;55864;49.238;8.092;2023-02-21T04:46:56;99895.69;;;6.43;79.84
68859;BME280;55864;49.238;8.092;2023-02-21T04:48:57;99893.38;;;6.39;79.65
68859;BME280;55864;49.238;8.092;2023-02-21T04:50:57;99883.13;;;6.36;79.65
68859;BME280;55864;49.238;8.092;2023-02-21T04:52:58;99885.97;;;6.33;80.09
68859;BME280;55864;49.238;8.092;2023-02-21T04:54:59;99888.88;;;6.28;79.98
68859;BME280;55864;49.238;8.092;2023-02-21T04:56:59;99890.88;;;6.25;80.20
68859;BME280;55864;49.238;8.092;2023-02-21T04:59:00;99882.31;;;6.23;80.63
68859;BME280;55864;49.238;8.092;2023-02-21T05:01:00;99884.19;;;6.21;80.66
68859;BME280;55864;49.238;8.092;2023-02-21T05:03:02;99885.13;;;6.20;81.11
68859;BME280;55864;49.238;8.092;2023-02-21T05:05:03;99892.13;;;6.19;81.40
68859;BME280;55864;49.238;8.092;2023-02-21T05:07:04;99884.63;;;6.27;81.79
68859;BME280;55864;49.238;8.092;2023-02-21T05:09:05;99885.66;;;6.37;82.05
68859;BME280;55864;49.238;8.092;2023-02-21T05:11:05;99885.66;;;6.50;81.54
68859;BME280;55864;49.238;8.092;2023-02-21T05:13:06;99876.34;;;6.58;80.97
68859;BME280;55864;49.238;8.092;2023-02-21T05:15:08;99875.59;;;6.69;80.57
68859;BME280;55864;49.238;8.092;2023-02-21T05:17:08;99867.22;;;6.77;80.21
68859;BME280;55864;49.238;8.092;2023-02-21T05:19:10;99869.41;;;6.83;80.34
68859;BME280;55864;49.238;8.092;2023-02-21T05:21:11;99868.25;;;6.87;80.39
68859;BME280;55864;49.238;8.092;2023-02-21T05:23:12;99873.13;;;6.91;80.04
68859;BME280;55864;49.238;8.092;2023-02-21T05:25:14;99867.78;;;6.93;79.32
68859;BME280;55864;49.238;8.092;2023-02-21T05:27:16;99868.44;;;6.96;79.50
68859;BME280;55864;49.238;8.092;2023-02-21T05:29:17;99869.25;;;6.97;79.49
68859;BME280;55864;49.238;8.092;2023-02-21T05:31:18;99873.75;;;6.95;78.95
68859;BME280;55864;49.238;8.092;2023-02-21T05:33:19;99873.66;;;6.96;78.94
68859;BME280;55864;49.238;8.092;2023-02-21T05:35:21;99871.03;;;6.96;79.53
68859;BME280;55864;49.238;8.092;2023-02-21T05:37:21;99873.84;;;6.93;79.07
68859;BME280;55864;49.238;8.092;2023-02-21T05:39:22;99866.38;;;6.89;79.49
68859;BME280;55864;49.238;8.092;2023-02-21T05:41:23;99865.53;;;6.88;79.46
68859;BME280;55864;49.238;8.092;2023-02-21T05:43:23;99870.84;;;6.87;79.83
68859;BME280;55864;49.238;8.092;2023-02-21T05:45:25;99867.09;;;6.78;80.23
68859;BME280;55864;49.238;8.092;2023-02-21T05:47:25;99876.00;;;6.76;80.73
68859;BME280;55864;49.238;8.092;2023-02-21T05:49:26;99869.09;;;6.75;80.65
68859;BME280;55864;49.238;8.092;2023-02-21T05:51:33;99872.44;;;6.77;80.64
68859;BME280;55864;49.238;8.092;2023-02-21T05:53:33;99873.41;;;6.76;80.96
68859;BME280;55864;49.238;8.092;2023-02-21T05:55:34;99870.78;;;6.76;80.53
68859;BME280;55864;49.238;8.092;2023-02-21T05:57:37;99874.09;;;6.78;80.77
68859;BME280;55864;49.238;8.092;2023-02-21T05:59:37;99881.72;;;6.81;80.92
68859;BME280;55864;49.238;8.092;2023-02-21T06:01:38;99886.00;;;6.82;80.97
68859;BME280;55864;49.238;8.092;2023-02-21T06:03:38;99886.00;;;6.82;81.11
68859;BME280;55864;49.238;8.092;2023-02-21T06:05:39;99877.44;;;6.80;81.02
68859;BME280;55864;49.238;8.092;2023-02-21T06:07:41;99876.41;;;6.82;81.45
68859;BME280;55864;49.238;8.092;2023-02-21T06:09:42;99874.28;;;6.87;81.17
68859;BME280;55864;49.238;8.092;2023-02-21T06:11:42;99876.47;;;6.93;80.95
68859;BME280;55864;49.238;8.092;2023-02-21T06:13:43;99869.03;;;7.00;80.82
68859;BME280;55864;49.238;8.092;2023-02-21T06:15:43;99872.88;;;7.07;80.31
68859;BME280;55864;49.238;8.092;2023-02-21T06:17:44;99863.75;;;7.12;79.99
68859;BME280;55864;49.238;8.092;2023-02-21T06:19:44;99873.66;;;7.20;80.23
68859;BME280;55864;49.238;8.092;2023-02-21T06:21:45;99870.59;;;7.26;79.74
68859;BME280;55864;49.238;8.092;2023-02-21T06:23:48;99873.72;;;7.31;79.35
68859;BME280;55864;49.238;8.092;2023-02-21T06:25:48;99872.53;;;7.35;78.78
68859;BME280;55864;49.238;8.092;2023-02-21T06:27:49;99872.22;;;7.39;78.94
68859;BME280;55864;49.238;8.092;2023-02-21T06:29:49;99879.81;;;7.42;78.31
68859;BME280;55864;49.238;8.092;2023-02-21T06:31:55;99876.16;;;7.45;77.94
68859;BME280;55864;49.238;8.092;2023-02-21T06:33:56;99877.72;;;7.47;77.99
68859;BME280;55864;49.238;8.092;2023-02-21T06:35:57;99876.78;;;7.48;77.85
68859;BME280;55864;49.238;8.092;2023-02-21T06:37:57;99865.47;;;7.48;78.05
68859;BME280;55864;49.238;8.092;2023-02-21T06:39:59;99868.94;;;7.48;78.37
68859;BME280;55864;49.238;8.092;2023-02-21T06:42:00;99867.16;;;7.49;78.45
68859;BME280;55864;49.238;8.092;2023-02-21T06:44:00;99862.53;;;7.52;77.92
68859;BME280;55864;49.238;8.092;2023-02-21T06:46:01;99867.53;;;7.55;78.30
68859;BME280;55864;49.238;8.092;2023-02-21T06:48:03;99862.91;;;7.59;78.00
68859;BME280;55864;49.238;8.092;2023-02-21T06:50:04;99852.44;;;7.59;77.35
68859;BME280;55864;49.238;8.092;2023-02-21T06:52:06;99863.00;;;7.57;77.48
68859;BME280;55864;49.238;8.092;2023-02-21T06:54:06;99865.63;;;7.57;77.49
68859;BME280;55864;49.238;8.092;2023-02-21T06:56:09;99862.09;;;7.58;77.81
68859;BME280;55864;49.238;8.092;2023-02-21T06:58:09;99856.75;;;7.60;78.16
68859;BME280;55864;49.238;8.092;2023-02-21T07:00:11;99862.09;;;7.58;77.82
68859;BME280;55864;49.238;8.092;2023-02-21T07:02:15;99861.84;;;7.61;77.65
68859;BME280;55864;49.238;8.092;2023-02-21T07:04:15;99857.47;;;7.62;77.87
68859;BME280;55864;49.238;8.092;2023-02-21T07:06:16;99864.34;;;7.63;77.55
68859;BME280;55864;49.238;8.092;2023-02-21T07:08:17;99875.75;;;7.62;77.57
68859;BME280;55864;49.238;8.092;2023-02-21T07:10:18;99866.59;;;7.56;77.56
68859;BME280;55864;49.238;8.092;2023-02-21T07:12:20;99873.34;;;7.59;78.21
68859;BME280;55864;49.238;8.092;2023-02-21T07:14:20;99867.06;;;7.61;78.03
68859;BME280;55864;49.238;8.092;2023-02-21T07:16:21;99865.78;;;7.67;77.56
68859;BME280;55864;49.238;8.092;2023-02-21T07:18:21;99868.63;;;7.64;77.69
68859;BME280;55864;49.238;8.092;2023-02-21T07:20:25;99869.81;;;7.60;76.87
68859;BME280;55864;49.238;8.092;2023-02-21T07:22:25;99859.56;;;7.57;76.43
68859;BME280;55864;49.238;8.092;2023-02-21T07:24:26;99865.75;;;7.56;76.75
68859;BME280;55864;49.238;8.092;2023-02-21T07:26:26;99863.13;;;7.56;76.56
68859;BME280;55864;49.238;8.092;2023-02-21T07:28:28;99863.13;;;7.56;76.63
68859;BME280;55864;49.238;8.092;2023-02-21T07:30:29;99865.50;;;7.59;76.76
68859;BME280;55864;49.238;8.092;2023-02-21T07:32:29;99859.22;;;7.61;76.53
68859;BME280;55864;49.238;8.092;2023-02-21T07:34:30;99866.94;;;7.63;76.82
68859;BME280;55864;49.238;8.092;2023-02-21T07:36:30;99861.59;;;7.64;76.85
68859;BME280;55864;49.238;8.092;2023-02-21T07:38:31;99864.22;;;7.64;77.17
68859;BME280;55864;49.238;8.092;2023-02-21T07:40:32;99865.91;;;7.66;77.12
68859;BME280;55864;49.238;8.092;2023-02-21T07:42:32;99868.41;;;7.67;76.88
68859;BME280;55864;49.238;8.092;2023-02-21T07:44:34;99866.75;;;7.66;77.37
68859;BME280;55864;49.238;8.092;2023-02-21T07:46:36;99867.47;;;7.68;77.28
68859;BME280;55864;49.238;8.092;2023-02-21T07:48:37;99869.13;;;7.69;77.20
68859;BME280;55864;49.238;8.092;2023-02-21T07:50:37;99863.69;;;7.72;77.20
68859;BME280;55864;49.238;8.092;2023-02-21T07:52:38;99867.81;;;7.75;77.71
68859;BME280;55864;49.238;8.092;2023-02-21T07:54:38;99866.78;;;7.77;77.29
68859;BME280;55864;49.238;8.092;2023-02-21T07:56:42;99867.50;;;7.79;78.24
68859;BME280;55864;49.238;8.092;2023-02-21T07:58:42;99860.13;;;7.84;77.42
68859;BME280;55864;49.238;8.092;2023-02-21T08:00:44;99860.72;;;7.88;77.80
68859;BME280;55864;49.238;8.092;2023-02-21T08:02:46;99863.00;;;7.92;77.77
68859;BME280;55864;49.238;8.092;2023-02-21T08:04:49;99858.25;;;7.97;77.68
68859;BME280;55864;49.238;8.092;2023-02-21T08:06:50;99872.44;;;8.06;78.29
68859;BME280;55864;49.238;8.092;2023-02-21T08:08:50;99864.13;;;8.12;78.41
68859;BME280;55864;49.238;8.092;2023-02-21T08:10:51;99865.19;;;8.20;79.21
68859;BME280;55864;49.238;8.092;2023-02-21T08:12:52;99860.38;;;8.27;78.09
68859;BME280;55864;49.238;8.092;2023-02-21T08:14:52;99857.03;;;8.36;77.79
68859;BME280;55864;49.238;8.092;2023-02-21T08:16:54;99864.03;;;8.46;78.53
68859;BME280;55864;49.238;8.092;2023-02-21T08:18:55;99855.47;;;8.55;77.81
68859;BME280;55864;49.238;8.092;2023-02-21T08:20:55;99863.44;;;8.65;77.32
68859;BME280;55864;49.238;8.092;2023-02-21T08:22:56;99863.81;;;8.72;76.92
68859;BME280;55864;49.238;8.092;2023-02-21T08:24:57;99867.59;;;8.79;76.16
68859;BME280;55864;49.238;8.092;2023-02-21T08:26:57;99860.22;;;8.84;75.90
68859;BME280;55864;49.238;8.092;2023-02-21T08:28:58;99852.72;;;8.90;75.80
68859;BME280;55864;49.238;8.092;2023-02-21T08:30:58;99845.19;;;8.97;76.06
68859;BME280;55864;49.238;8.092;2023-02-21T08:33:00;99845.31;;;9.06;76.24
68859;BME280;55864;49.238;8.092;2023-02-21T08:35:01;99848.13;;;9.14;75.71
68859;BME280;55864;49.238;8.092;2023-02-21T08:37:02;99844.78;;;9.23;75.15
68859;BME280;55864;49.238;8.092;2023-02-21T08:39:03;99847.34;;;9.34;75.29
68859;BME280;55864;49.238;8.092;2023-02-21T08:41:04;99847.16;;;9.47;75.17
68859;BME280;55864;49.238;8.092;2023-02-21T08:43:05;99846.41;;;9.56;74.40
68859;BME280;55864;49.238;8.092;2023-02-21T08:45:06;99842.22;;;9.65;74.73
68859;BME280;55864;49.238;8.092;2023-02-21T08:47:07;99836.78;;;9.77;74.32
68859;BME280;55864;49.238;8.092;2023-02-21T08:49:09;99841.38;;;9.85;72.98
68859;BME280;55864;49.238;8.092;2023-02-21T08:51:10;99846.13;;;9.91;73.32
68859;BME280;55864;49.238;8.092;2023-02-21T08:53:11;99844.25;;;10.02;73.43
68859;BME280;55864;49.238;8.092;2023-02-21T08:55:12;99839.94;;;10.12;72.75
68859;BME280;55864;49.238;8.092;2023-02-21T08:57:14;99843.28;;;10.24;71.82
68859;BME280;55864;49.238;8.092;2023-02-21T08:59:16;99844.31;;;10.32;71.43
68859;BME280;55864;49.238;8.092;2023-02-21T09:01:19;99848.78;;;10.41;71.35
68859;BME280;55864;49.238;8.092;2023-02-21T09:03:24;99849.66;;;10.52;70.63
68859;BME280;55864;49.238;8.092;2023-02-21T09:05:28;99855.66;;;10.63;70.41
68859;BME280;55864;49.238;8.092;2023-02-21T09:07:29;99849.44;;;10.74;70.04
68859;BME280;55864;49.238;8.092;2023-02-21T09:09:29;99846.44;;;10.78;69.48
68859;BME280;55864;49.238;8.092;2023-02-21T09:11:30;99836.19;;;10.85;69.33
68859;BME280;55864;49.238;8.092;2023-02-21T09:13:31;99835.41;;;10.94;68.82
68859;BME280;55864;49.238;8.092;2023-02-21T09:15:32;99836.38;;;11.02;68.44
68859;BME280;55864;49.238;8.092;2023-02-21T09:17:33;99830.72;;;11.07;68.92
68859;BME280;55864;49.238;8.092;2023-02-21T09:19:34;99840.41;;;11.16;68.94
68859;BME280;55864;49.238;8.092;2023-02-21T09:21:36;99839.59;;;11.25;68.00
68859;BME280;55864;49.238;8.092;2023-02-21T09:23:37;99835.88;;;11.37;68.56
68859;BME280;55864;49.238;8.092;2023-02-21T09:25:37;99826.84;;;11.49;67.97
68859;BME280;55864;49.238;8.092;2023-02-21T09:27:38;99829.34;;;11.60;67.76
68859;BME280;55864;49.238;8.092;2023-02-21T09:29:39;99828.28;;;11.72;67.46
68859;BME280;55864;49.238;8.092;2023-02-21T09:31:39;99832.97;;;11.78;66.48
68859;BME280;55864;49.238;8.092;2023-02-21T09:33:40;99831.59;;;11.84;66.48
68859;BME280;55864;49.238;8.092;2023-02-21T09:35:41;99828.38;;;11.90;66.57
68859;BME280;55864;49.238;8.092;2023-02-21T09:37:44;99827.00;;;11.95;66.16
68859;BME280;55864;49.238;8.092;2023-02-21T09:39:45;99826.44;;;12.01;66.12
68859;BME280;55864;49.238;8.092;2023-02-21T09:41:46;99827.38;;;12.10;65.71
68859;BME280;55864;49.238;8.092;2023-02-21T09:43:49;99821.53;;;12.16;65.67
68859;BME280;55864;49.238;8.092;2023-02-21T09:45:51;99817.50;;;12.21;66.34
68859;BME280;55864;49.238;8.092;2023-02-21T09:47:55;99827.59;;;12.26;65.98
68859;BME280;55864;49.238;8.092;2023-02-21T09:50:00;99822.34;;;12.26;65.04
68859;BME280;55864;49.238;8.092;2023-02-21T09:52:03;99819.41;;;12.29;64.79
68859;BME280;55864;49.238;8.092;2023-02-21T09:54:05;99816.63;;;12.30;64.92
68859;BME280;55864;49.238;8.092;2023-02-21T09:56:10;99817.03;;;12.36;65.02
68859;BME280;55864;49.238;8.092;2023-02-21T09:58:14;99819.00;;;12.34;65.31
68859;BME280;55864;49.238;8.092;2023-02-21T10:00:17;99820.78;;;12.33;65.37
68859;BME280;55864;49.238;8.092;2023-02-21T10:02:28;99813.72;;;12.34;64.80
68859;BME280;55864;49.238;8.092;2023-02-21T10:04:51;99812.72;;;12.35;64.33
68859;BME280;55864;49.238;8.092;2023-02-21T10:06:59;99815.09;;;12.38;64.29
68859;BME280;55864;49.238;8.092;2023-02-21T10:09:07;99816.44;;;12.42;63.94
68859;BME280;55864;49.238;8.092;2023-02-21T10:11:19;99813.94;;;12.40;64.79
68859;BME280;55864;49.238;8.092;2023-02-21T10:13:32;99809.53;;;12.41;64.19
68859;BME280;55864;49.238;8.092;2023-02-21T10:15:40;99810.22;;;12.43;64.40
68859;BME280;55864;49.238;8.092;2023-02-21T10:17:48;99809.22;;;12.44;64.72
68859;BME280;55864;49.238;8.092;2023-02-21T10:19:52;99808.25;;;12.45;64.02
68859;BME280;55864;49.238;8.092;2023-02-21T10:21:54;99809.63;;;12.49;63.57
68859;BME280;55864;49.238;8.092;2023-02-21T10:23:56;99804.44;;;12.57;63.17
68859;BME280;55864;49.238;8.092;2023-02-21T10:26:03;99807.34;;;12.63;62.88
68859;BME280;55864;49.238;8.092;2023-02-21T10:28:07;99802.44;;;12.68;62.73
68859;BME280;55864;49.238;8.092;2023-02-21T10:30:10;99796.75;;;12.73;62.16
68859;BME280;55864;49.238;8.092;2023-02-21T10:32:17;99793.00;;;12.75;61.92
68859;BME280;55864;49.238;8.092;2023-02-21T10:34:21;99801.28;;;12.80;61.79
68859;BME280;55864;49.238;8.092;2023-02-21T10:36:35;99803.75;;;12.82;61.49
68859;BME280;55864;49.238;8.092;2023-02-21T10:39:11;99802.47;;;12.86;62.23
68859;BME280;55864;49.238;8.092;2023-02-21T10:41:29;99803.16;;;12.88;61.56
68859;BME280;55864;49.238;8.092;2023-02-21T10:43:35;99799.94;;;12.94;61.74
68859;BME280;55864;49.238;8.092;2023-02-21T10:45:41;99802.59;;;12.94;60.41
68859;BME280;55864;49.238;8.092;2023-02-21T10:47:49;99796.72;;;13.00;60.11
68859;BME280;55864;49.238;8.092;2023-02-21T10:50:01;99789.38;;;13.03;60.42
68859;BME280;55864;49.238;8.092;2023-02-21T10:52:09;99802.09;;;13.08;59.74
68859;BME280;55864;49.238;8.092;2023-02-21T10:54:42;99791.69;;;13.06;59.36
68859;BME280;55864;49.238;8.092;2023-02-21T10:57:19;99788.78;;;13.09;59.24
68859;BME280;55864;49.238;8.092;2023-02-21T10:59:31;99788.03;;;13.17;60.20
68859;BME280;55864;49.238;8.092;2023-02-21T11:01:35;99780.47;;;13.22;59.85
68859;BME280;55864;49.238;8.092;2023-02-21T11:03:42;99777.53;;;13.25;59.05